sensor_id;sensor_type;location;lat;lon;timestamp;P1;durP1;ratioP1;P2;durP2;ratioP2
62832;SDS011;48891;49.220;6.920;2023-08-07T00:00:27;20.48;;;17.73;;
62832;SDS011;48891;49.220;6.920;2023-08-07T00:02:53;18.92;;;16.20;;
62832;SDS011;48891;49.220;6.920;2023-08-07T00:05:18;19.33;;;17.23;;
62832;SDS011;48891;49.220;6.920;2023-08-07T00:07:43;20.23;;;17.60;;
62832;SDS011;48891;49.220;6.920;2023-08-07T00:10:09;20.15;;;17.60;;
62832;SDS011;48891;49.220;6.920;2023-08-07T00:12:34;20.50;;;17.75;;
62832;SDS011;48891;49.220;6.920;2023-08-07T00:15:00;20.88;;;17.90;;
62832;SDS011;48891;49.220;6.920;2023-08-07T00:17:26;19.48;;;17.15;;
62832;SDS011;48891;49.220;6.920;2023-08-07T00:19:51;20.83;;;17.65;;
62832;SDS011;48891;49.220;6.920;2023-08-07T00:22:17;21.33;;;18.38;;
62832;SDS011;48891;49.220;6.920;2023-08-07T00:24:42;20.35;;;17.27;;
62832;SDS011;48891;49.220;6.920;2023-08-07T00:27:07;21.60;;;18.02;;
62832;SDS011;48891;49.220;6.920;2023-08-07T00:29:32;21.05;;;18.25;;
62832;SDS011;48891;49.220;6.920;2023-08-07T00:31:57;22.55;;;17.17;;
62832;SDS011;48891;49.220;6.920;2023-08-07T00:34:23;22.23;;;18.23;;
62832;SDS011;48891;49.220;6.920;2023-08-07T00:36:48;21.30;;;17.70;;
62832;SDS011;48891;49.220;6.920;2023-08-07T00:39:13;21.27;;;18.30;;
62832;SDS011;48891;49.220;6.920;2023-08-07T00:41:38;22.45;;;19.25;;
62832;SDS011;48891;49.220;6.920;2023-08-07T00:44:04;21.65;;;18.52;;
62832;SDS011;48891;49.220;6.920;2023-08-07T00:46:29;20.75;;;18.13;;
62832;SDS011;48891;49.220;6.920;2023-08-07T00:48:55;21.52;;;18.33;;
62832;SDS011;48891;49.220;6.920;2023-08-07T00:51:21;22.08;;;18.48;;
62832;SDS011;48891;49.220;6.920;2023-08-07T00:53:48;22.50;;;19.20;;
62832;SDS011;48891;49.220;6.920;2023-08-07T00:56:13;21.42;;;17.88;;
62832;SDS011;48891;49.220;6.920;2023-08-07T00:58:39;21.35;;;17.88;;
62832;SDS011;48891;49.220;6.920;2023-08-07T01:01:05;20.17;;;17.55;;
62832;SDS011;48891;49.220;6.920;2023-08-07T01:03:31;22.05;;;18.83;;
62832;SDS011;48891;49.220;6.920;2023-08-07T01:05:56;20.88;;;18.67;;
62832;SDS011;48891;49.220;6.920;2023-08-07T01:08:22;20.67;;;17.70;;
62832;SDS011;48891;49.220;6.920;2023-08-07T01:13:18;22.57;;;18.87;;
62832;SDS011;48891;49.220;6.920;2023-08-07T01:15:49;23.65;;;19.30;;
62832;SDS011;48891;49.220;6.920;2023-08-07T01:18:20;23.10;;;20.08;;
62832;SDS011;48891;49.220;6.920;2023-08-07T01:20:47;24.02;;;19.63;;
62832;SDS011;48891;49.220;6.920;2023-08-07T01:23:12;24.25;;;20.10;;
62832;SDS011;48891;49.220;6.920;2023-08-07T01:25:37;22.83;;;19.33;;
62832;SDS011;48891;49.220;6.920;2023-08-07T01:28:09;22.45;;;19.65;;
62832;SDS011;48891;49.220;6.920;2023-08-07T01:30:42;23.17;;;19.88;;
62832;SDS011;48891;49.220;6.920;2023-08-07T01:35:49;24.63;;;21.00;;
62832;SDS011;48891;49.220;6.920;2023-08-07T01:38:18;23.30;;;20.60;;
62832;SDS011;48891;49.220;6.920;2023-08-07T01:43:12;24.02;;;20.10;;
62832;SDS011;48891;49.220;6.920;2023-08-07T01:45:37;23.90;;;19.83;;
62832;SDS011;48891;49.220;6.920;2023-08-07T01:48:03;24.73;;;20.20;;
62832;SDS011;48891;49.220;6.920;2023-08-07T01:50:28;24.85;;;21.75;;
62832;SDS011;48891;49.220;6.920;2023-08-07T01:52:53;23.42;;;20.30;;
62832;SDS011;48891;49.220;6.920;2023-08-07T01:55:19;24.70;;;20.80;;
62832;SDS011;48891;49.220;6.920;2023-08-07T01:57:46;25.70;;;21.07;;
62832;SDS011;48891;49.220;6.920;2023-08-07T02:00:12;24.77;;;20.08;;
62832;SDS011;48891;49.220;6.920;2023-08-07T02:02:37;26.58;;;20.67;;
62832;SDS011;48891;49.220;6.920;2023-08-07T02:05:03;24.45;;;20.05;;
62832;SDS011;48891;49.220;6.920;2023-08-07T02:07:29;26.35;;;21.80;;
62832;SDS011;48891;49.220;6.920;2023-08-07T02:09:55;26.52;;;21.27;;
62832;SDS011;48891;49.220;6.920;2023-08-07T02:12:20;24.52;;;21.02;;
62832;SDS011;48891;49.220;6.920;2023-08-07T02:14:45;25.53;;;21.40;;
62832;SDS011;48891;49.220;6.920;2023-08-07T02:17:10;23.63;;;20.60;;
62832;SDS011;48891;49.220;6.920;2023-08-07T02:19:37;25.98;;;21.52;;
62832;SDS011;48891;49.220;6.920;2023-08-07T02:22:02;25.45;;;22.00;;
62832;SDS011;48891;49.220;6.920;2023-08-07T02:24:28;26.95;;;22.02;;
62832;SDS011;48891;49.220;6.920;2023-08-07T02:26:53;24.65;;;20.13;;
62832;SDS011;48891;49.220;6.920;2023-08-07T02:29:18;25.87;;;21.20;;
62832;SDS011;48891;49.220;6.920;2023-08-07T02:31:44;25.73;;;21.45;;
62832;SDS011;48891;49.220;6.920;2023-08-07T02:34:09;25.25;;;21.20;;
62832;SDS011;48891;49.220;6.920;2023-08-07T02:36:34;25.55;;;21.02;;
62832;SDS011;48891;49.220;6.920;2023-08-07T02:38:59;25.42;;;22.05;;
62832;SDS011;48891;49.220;6.920;2023-08-07T02:41:25;27.00;;;21.80;;
62832;SDS011;48891;49.220;6.920;2023-08-07T02:43:50;27.00;;;22.45;;
62832;SDS011;48891;49.220;6.920;2023-08-07T02:46:15;27.02;;;22.35;;
62832;SDS011;48891;49.220;6.920;2023-08-07T02:48:43;27.42;;;22.13;;
62832;SDS011;48891;49.220;6.920;2023-08-07T02:51:08;28.10;;;23.38;;
62832;SDS011;48891;49.220;6.920;2023-08-07T02:53:34;26.95;;;21.77;;
62832;SDS011;48891;49.220;6.920;2023-08-07T02:55:59;27.67;;;23.40;;
62832;SDS011;48891;49.220;6.920;2023-08-07T02:58:24;26.13;;;21.88;;
62832;SDS011;48891;49.220;6.920;2023-08-07T03:00:49;24.77;;;21.93;;
62832;SDS011;48891;49.220;6.920;2023-08-07T03:03:14;28.37;;;22.90;;
62832;SDS011;48891;49.220;6.920;2023-08-07T03:05:47;27.33;;;22.05;;
62832;SDS011;48891;49.220;6.920;2023-08-07T03:08:16;25.80;;;22.08;;
62832;SDS011;48891;49.220;6.920;2023-08-07T03:10:41;27.77;;;22.60;;
62832;SDS011;48891;49.220;6.920;2023-08-07T03:13:06;26.35;;;22.67;;
62832;SDS011;48891;49.220;6.920;2023-08-07T03:15:32;27.63;;;22.85;;
62832;SDS011;48891;49.220;6.920;2023-08-07T03:17:57;27.10;;;21.75;;
62832;SDS011;48891;49.220;6.920;2023-08-07T03:20:22;26.48;;;21.80;;
62832;SDS011;48891;49.220;6.920;2023-08-07T03:22:47;29.00;;;22.83;;
62832;SDS011;48891;49.220;6.920;2023-08-07T03:25:12;26.88;;;22.35;;
62832;SDS011;48891;49.220;6.920;2023-08-07T03:27:38;28.90;;;22.85;;
62832;SDS011;48891;49.220;6.920;2023-08-07T03:30:03;26.37;;;21.60;;
62832;SDS011;48891;49.220;6.920;2023-08-07T03:32:29;25.95;;;22.75;;
62832;SDS011;48891;49.220;6.920;2023-08-07T03:34:54;23.90;;;21.15;;
62832;SDS011;48891;49.220;6.920;2023-08-07T03:37:19;25.43;;;21.60;;
62832;SDS011;48891;49.220;6.920;2023-08-07T03:39:44;27.38;;;22.73;;
62832;SDS011;48891;49.220;6.920;2023-08-07T03:42:10;27.70;;;22.65;;
62832;SDS011;48891;49.220;6.920;2023-08-07T03:44:35;28.67;;;23.42;;
62832;SDS011;48891;49.220;6.920;2023-08-07T03:47:00;28.30;;;22.52;;
62832;SDS011;48891;49.220;6.920;2023-08-07T03:49:25;26.20;;;21.38;;
62832;SDS011;48891;49.220;6.920;2023-08-07T03:51:51;27.50;;;22.55;;
62832;SDS011;48891;49.220;6.920;2023-08-07T03:54:16;27.23;;;22.03;;
62832;SDS011;48891;49.220;6.920;2023-08-07T03:56:41;27.33;;;22.10;;
62832;SDS011;48891;49.220;6.920;2023-08-07T03:59:06;29.10;;;22.80;;
62832;SDS011;48891;49.220;6.920;2023-08-07T04:01:31;29.63;;;22.58;;
62832;SDS011;48891;49.220;6.920;2023-08-07T04:03:57;25.38;;;21.63;;
62832;SDS011;48891;49.220;6.920;2023-08-07T04:06:22;24.13;;;20.50;;
62832;SDS011;48891;49.220;6.920;2023-08-07T04:08:47;25.65;;;20.95;;
62832;SDS011;48891;49.220;6.920;2023-08-07T04:11:13;26.13;;;20.95;;
62832;SDS011;48891;49.220;6.920;2023-08-07T04:13:38;26.65;;;21.95;;
62832;SDS011;48891;49.220;6.920;2023-08-07T04:16:03;25.90;;;21.23;;
62832;SDS011;48891;49.220;6.920;2023-08-07T04:18:29;24.33;;;20.80;;
62832;SDS011;48891;49.220;6.920;2023-08-07T04:20:55;27.38;;;21.48;;
62832;SDS011;48891;49.220;6.920;2023-08-07T04:23:21;25.02;;;22.15;;
62832;SDS011;48891;49.220;6.920;2023-08-07T04:25:48;24.92;;;21.88;;
62832;SDS011;48891;49.220;6.920;2023-08-07T04:28:14;24.92;;;20.15;;
62832;SDS011;48891;49.220;6.920;2023-08-07T04:30:40;26.90;;;22.95;;
62832;SDS011;48891;49.220;6.920;2023-08-07T04:33:05;26.10;;;21.50;;
62832;SDS011;48891;49.220;6.920;2023-08-07T04:35:31;24.42;;;21.08;;
62832;SDS011;48891;49.220;6.920;2023-08-07T04:37:56;25.20;;;20.98;;
62832;SDS011;48891;49.220;6.920;2023-08-07T04:40:22;26.08;;;21.55;;
62832;SDS011;48891;49.220;6.920;2023-08-07T04:42:48;26.00;;;21.33;;
62832;SDS011;48891;49.220;6.920;2023-08-07T04:45:14;24.73;;;20.70;;
62832;SDS011;48891;49.220;6.920;2023-08-07T04:47:39;25.92;;;20.20;;
62832;SDS011;48891;49.220;6.920;2023-08-07T04:50:05;24.88;;;20.73;;
62832;SDS011;48891;49.220;6.920;2023-08-07T04:52:30;26.02;;;20.60;;
62832;SDS011;48891;49.220;6.920;2023-08-07T04:54:55;24.20;;;20.38;;
62832;SDS011;48891;49.220;6.920;2023-08-07T04:57:20;24.77;;;19.70;;
62832;SDS011;48891;49.220;6.920;2023-08-07T04:59:46;26.25;;;21.30;;
62832;SDS011;48891;49.220;6.920;2023-08-07T05:02:11;25.50;;;19.88;;
62832;SDS011;48891;49.220;6.920;2023-08-07T05:04:36;25.73;;;20.52;;
62832;SDS011;48891;49.220;6.920;2023-08-07T05:07:01;25.23;;;21.27;;
62832;SDS011;48891;49.220;6.920;2023-08-07T05:09:27;24.15;;;20.73;;
62832;SDS011;48891;49.220;6.920;2023-08-07T05:11:52;25.73;;;20.93;;
62832;SDS011;48891;49.220;6.920;2023-08-07T05:14:17;24.60;;;20.73;;
62832;SDS011;48891;49.220;6.920;2023-08-07T05:16:42;26.67;;;22.25;;
62832;SDS011;48891;49.220;6.920;2023-08-07T05:19:07;24.10;;;19.77;;
62832;SDS011;48891;49.220;6.920;2023-08-07T05:21:33;24.70;;;20.50;;
62832;SDS011;48891;49.220;6.920;2023-08-07T05:23:58;23.97;;;19.10;;
62832;SDS011;48891;49.220;6.920;2023-08-07T05:26:23;25.42;;;19.55;;
62832;SDS011;48891;49.220;6.920;2023-08-07T05:28:48;25.58;;;20.45;;
62832;SDS011;48891;49.220;6.920;2023-08-07T05:31:14;24.77;;;19.47;;
62832;SDS011;48891;49.220;6.920;2023-08-07T05:33:39;23.70;;;19.48;;
62832;SDS011;48891;49.220;6.920;2023-08-07T05:36:04;25.13;;;20.20;;
62832;SDS011;48891;49.220;6.920;2023-08-07T05:38:30;24.75;;;20.17;;
62832;SDS011;48891;49.220;6.920;2023-08-07T05:40:55;23.35;;;18.98;;
62832;SDS011;48891;49.220;6.920;2023-08-07T05:43:20;25.30;;;19.73;;
62832;SDS011;48891;49.220;6.920;2023-08-07T05:45:45;22.47;;;18.97;;
62832;SDS011;48891;49.220;6.920;2023-08-07T05:48:10;24.48;;;19.77;;
62832;SDS011;48891;49.220;6.920;2023-08-07T05:50:36;25.27;;;19.65;;
62832;SDS011;48891;49.220;6.920;2023-08-07T05:53:01;23.70;;;20.13;;
62832;SDS011;48891;49.220;6.920;2023-08-07T05:55:26;24.83;;;19.27;;
62832;SDS011;48891;49.220;6.920;2023-08-07T05:57:51;24.03;;;19.60;;
62832;SDS011;48891;49.220;6.920;2023-08-07T06:00:17;23.50;;;18.53;;
62832;SDS011;48891;49.220;6.920;2023-08-07T06:02:42;24.65;;;18.80;;
62832;SDS011;48891;49.220;6.920;2023-08-07T06:05:07;22.42;;;18.05;;
62832;SDS011;48891;49.220;6.920;2023-08-07T06:07:33;23.48;;;19.05;;
62832;SDS011;48891;49.220;6.920;2023-08-07T06:09:58;22.80;;;18.35;;
62832;SDS011;48891;49.220;6.920;2023-08-07T06:12:23;23.20;;;19.23;;
62832;SDS011;48891;49.220;6.920;2023-08-07T06:14:48;22.73;;;19.07;;
62832;SDS011;48891;49.220;6.920;2023-08-07T06:17:13;24.47;;;18.90;;
62832;SDS011;48891;49.220;6.920;2023-08-07T06:19:39;21.92;;;18.35;;
62832;SDS011;48891;49.220;6.920;2023-08-07T06:22:04;22.33;;;18.43;;
62832;SDS011;48891;49.220;6.920;2023-08-07T06:24:29;22.80;;;18.42;;
62832;SDS011;48891;49.220;6.920;2023-08-07T06:26:55;23.65;;;19.30;;
62832;SDS011;48891;49.220;6.920;2023-08-07T06:29:20;23.65;;;18.92;;
62832;SDS011;48891;49.220;6.920;2023-08-07T06:31:45;22.40;;;18.85;;
62832;SDS011;48891;49.220;6.920;2023-08-07T06:34:10;22.83;;;18.38;;
62832;SDS011;48891;49.220;6.920;2023-08-07T06:36:36;24.77;;;17.87;;
62832;SDS011;48891;49.220;6.920;2023-08-07T06:39:01;22.50;;;18.25;;
62832;SDS011;48891;49.220;6.920;2023-08-07T06:41:26;22.27;;;17.75;;
62832;SDS011;48891;49.220;6.920;2023-08-07T06:43:51;21.23;;;17.60;;
62832;SDS011;48891;49.220;6.920;2023-08-07T06:46:17;23.13;;;18.30;;
62832;SDS011;48891;49.220;6.920;2023-08-07T06:48:42;22.88;;;17.67;;
62832;SDS011;48891;49.220;6.920;2023-08-07T06:51:07;21.60;;;18.00;;
62832;SDS011;48891;49.220;6.920;2023-08-07T06:53:32;23.17;;;18.80;;
62832;SDS011;48891;49.220;6.920;2023-08-07T06:55:58;23.63;;;18.02;;
62832;SDS011;48891;49.220;6.920;2023-08-07T06:58:23;21.85;;;18.13;;
62832;SDS011;48891;49.220;6.920;2023-08-07T07:00:48;20.38;;;16.70;;
62832;SDS011;48891;49.220;6.920;2023-08-07T07:03:14;23.87;;;18.27;;
62832;SDS011;48891;49.220;6.920;2023-08-07T07:05:39;19.70;;;16.88;;
62832;SDS011;48891;49.220;6.920;2023-08-07T07:08:04;21.87;;;18.00;;
62832;SDS011;48891;49.220;6.920;2023-08-07T07:10:29;20.88;;;17.00;;
62832;SDS011;48891;49.220;6.920;2023-08-07T07:12:55;23.77;;;18.05;;
62832;SDS011;48891;49.220;6.920;2023-08-07T07:15:20;21.20;;;16.70;;
62832;SDS011;48891;49.220;6.920;2023-08-07T07:17:45;22.23;;;17.50;;
62832;SDS011;48891;49.220;6.920;2023-08-07T07:20:10;21.20;;;17.55;;
62832;SDS011;48891;49.220;6.920;2023-08-07T07:22:36;22.25;;;18.40;;
62832;SDS011;48891;49.220;6.920;2023-08-07T07:25:01;21.58;;;17.92;;
62832;SDS011;48891;49.220;6.920;2023-08-07T07:27:26;23.08;;;18.23;;
62832;SDS011;48891;49.220;6.920;2023-08-07T07:29:52;21.15;;;17.80;;
62832;SDS011;48891;49.220;6.920;2023-08-07T07:32:17;22.50;;;17.73;;
62832;SDS011;48891;49.220;6.920;2023-08-07T07:34:43;22.33;;;17.85;;
62832;SDS011;48891;49.220;6.920;2023-08-07T07:37:08;24.20;;;19.27;;
62832;SDS011;48891;49.220;6.920;2023-08-07T07:39:35;22.05;;;18.50;;
62832;SDS011;48891;49.220;6.920;2023-08-07T07:42:00;23.35;;;19.08;;
62832;SDS011;48891;49.220;6.920;2023-08-07T07:44:25;22.05;;;17.60;;
62832;SDS011;48891;49.220;6.920;2023-08-07T07:46:50;22.63;;;18.43;;
62832;SDS011;48891;49.220;6.920;2023-08-07T07:49:16;21.10;;;17.60;;
62832;SDS011;48891;49.220;6.920;2023-08-07T07:51:41;23.30;;;17.63;;
62832;SDS011;48891;49.220;6.920;2023-08-07T07:54:06;20.35;;;17.75;;
62832;SDS011;48891;49.220;6.920;2023-08-07T07:56:31;20.77;;;17.23;;
62832;SDS011;48891;49.220;6.920;2023-08-07T07:58:57;21.58;;;17.63;;
62832;SDS011;48891;49.220;6.920;2023-08-07T08:01:22;22.27;;;17.23;;
62832;SDS011;48891;49.220;6.920;2023-08-07T08:03:47;21.65;;;17.63;;
62832;SDS011;48891;49.220;6.920;2023-08-07T08:06:12;22.50;;;17.17;;
62832;SDS011;48891;49.220;6.920;2023-08-07T08:08:38;22.40;;;17.67;;
62832;SDS011;48891;49.220;6.920;2023-08-07T08:11:03;22.00;;;18.80;;
62832;SDS011;48891;49.220;6.920;2023-08-07T08:13:28;22.17;;;18.48;;
62832;SDS011;48891;49.220;6.920;2023-08-07T08:15:53;22.63;;;18.80;;
62832;SDS011;48891;49.220;6.920;2023-08-07T08:18:19;21.63;;;18.23;;
62832;SDS011;48891;49.220;6.920;2023-08-07T08:20:44;23.05;;;18.17;;
62832;SDS011;48891;49.220;6.920;2023-08-07T08:23:09;21.57;;;18.20;;
62832;SDS011;48891;49.220;6.920;2023-08-07T08:25:34;21.93;;;18.77;;
62832;SDS011;48891;49.220;6.920;2023-08-07T08:27:59;22.15;;;18.13;;
62832;SDS011;48891;49.220;6.920;2023-08-07T08:30:25;22.45;;;18.40;;
62832;SDS011;48891;49.220;6.920;2023-08-07T08:32:50;22.10;;;18.83;;
62832;SDS011;48891;49.220;6.920;2023-08-07T08:35:15;23.48;;;18.50;;
62832;SDS011;48891;49.220;6.920;2023-08-07T08:37:40;22.08;;;18.13;;
62832;SDS011;48891;49.220;6.920;2023-08-07T08:40:06;21.83;;;18.33;;
62832;SDS011;48891;49.220;6.920;2023-08-07T08:42:33;23.33;;;19.35;;
62832;SDS011;48891;49.220;6.920;2023-08-07T08:44:59;24.88;;;19.52;;
62832;SDS011;48891;49.220;6.920;2023-08-07T08:47:26;22.95;;;18.67;;
62832;SDS011;48891;49.220;6.920;2023-08-07T08:50:01;24.02;;;19.67;;
62832;SDS011;48891;49.220;6.920;2023-08-07T08:52:30;22.50;;;18.13;;
62832;SDS011;48891;49.220;6.920;2023-08-07T08:54:56;23.48;;;19.13;;
62832;SDS011;48891;49.220;6.920;2023-08-07T08:57:22;21.30;;;18.67;;
62832;SDS011;48891;49.220;6.920;2023-08-07T08:59:49;22.02;;;18.63;;
62832;SDS011;48891;49.220;6.920;2023-08-07T09:02:15;24.33;;;19.42;;
62832;SDS011;48891;49.220;6.920;2023-08-07T09:04:41;23.08;;;19.13;;
62832;SDS011;48891;49.220;6.920;2023-08-07T09:07:07;23.75;;;19.50;;
62832;SDS011;48891;49.220;6.920;2023-08-07T09:09:32;23.35;;;19.50;;
62832;SDS011;48891;49.220;6.920;2023-08-07T09:11:58;22.17;;;18.40;;
62832;SDS011;48891;49.220;6.920;2023-08-07T09:14:26;20.77;;;18.17;;
62832;SDS011;48891;49.220;6.920;2023-08-07T09:16:54;20.05;;;17.70;;
62832;SDS011;48891;49.220;6.920;2023-08-07T09:19:19;23.15;;;18.20;;
62832;SDS011;48891;49.220;6.920;2023-08-07T09:21:45;22.65;;;18.50;;
62832;SDS011;48891;49.220;6.920;2023-08-07T09:24:10;24.23;;;18.27;;
62832;SDS011;48891;49.220;6.920;2023-08-07T09:26:35;19.95;;;16.88;;
62832;SDS011;48891;49.220;6.920;2023-08-07T09:29:01;21.00;;;17.00;;
62832;SDS011;48891;49.220;6.920;2023-08-07T09:31:27;23.15;;;17.67;;
62832;SDS011;48891;49.220;6.920;2023-08-07T09:33:53;18.35;;;15.00;;
62832;SDS011;48891;49.220;6.920;2023-08-07T09:36:18;18.63;;;14.85;;
62832;SDS011;48891;49.220;6.920;2023-08-07T09:38:49;18.80;;;14.77;;
62832;SDS011;48891;49.220;6.920;2023-08-07T09:41:16;17.98;;;15.63;;
62832;SDS011;48891;49.220;6.920;2023-08-07T09:43:42;17.60;;;14.38;;
62832;SDS011;48891;49.220;6.920;2023-08-07T09:46:08;16.63;;;14.13;;
62832;SDS011;48891;49.220;6.920;2023-08-07T09:48:43;15.88;;;12.90;;
62832;SDS011;48891;49.220;6.920;2023-08-07T09:51:08;18.45;;;13.90;;
62832;SDS011;48891;49.220;6.920;2023-08-07T09:53:34;16.88;;;13.73;;
62832;SDS011;48891;49.220;6.920;2023-08-07T09:56:00;16.52;;;13.23;;
62832;SDS011;48891;49.220;6.920;2023-08-07T09:58:25;16.30;;;12.77;;
62832;SDS011;48891;49.220;6.920;2023-08-07T10:00:51;15.43;;;12.57;;
62832;SDS011;48891;49.220;6.920;2023-08-07T10:03:16;17.20;;;13.15;;
62832;SDS011;48891;49.220;6.920;2023-08-07T10:05:42;14.43;;;11.98;;
62832;SDS011;48891;49.220;6.920;2023-08-07T10:08:08;13.93;;;11.32;;
62832;SDS011;48891;49.220;6.920;2023-08-07T10:10:35;14.63;;;11.93;;
62832;SDS011;48891;49.220;6.920;2023-08-07T10:13:02;14.77;;;11.93;;
62832;SDS011;48891;49.220;6.920;2023-08-07T10:15:28;16.30;;;12.20;;
62832;SDS011;48891;49.220;6.920;2023-08-07T10:17:54;13.93;;;10.80;;
62832;SDS011;48891;49.220;6.920;2023-08-07T10:20:20;13.68;;;11.27;;
62832;SDS011;48891;49.220;6.920;2023-08-07T10:22:46;14.93;;;11.05;;
62832;SDS011;48891;49.220;6.920;2023-08-07T10:25:12;16.80;;;11.05;;
62832;SDS011;48891;49.220;6.920;2023-08-07T10:27:38;14.48;;;11.13;;
62832;SDS011;48891;49.220;6.920;2023-08-07T10:30:07;14.25;;;10.80;;
62832;SDS011;48891;49.220;6.920;2023-08-07T10:32:35;15.20;;;11.45;;
62832;SDS011;48891;49.220;6.920;2023-08-07T10:35:04;13.68;;;10.95;;
62832;SDS011;48891;49.220;6.920;2023-08-07T10:37:37;13.85;;;10.85;;
62832;SDS011;48891;49.220;6.920;2023-08-07T10:40:05;14.30;;;12.00;;
62832;SDS011;48891;49.220;6.920;2023-08-07T10:42:53;13.15;;;10.48;;
62832;SDS011;48891;49.220;6.920;2023-08-07T10:45:17;13.88;;;11.40;;
62832;SDS011;48891;49.220;6.920;2023-08-07T10:47:43;13.18;;;10.57;;
62832;SDS011;48891;49.220;6.920;2023-08-07T10:50:11;15.25;;;11.02;;
62832;SDS011;48891;49.220;6.920;2023-08-07T10:52:39;16.92;;;11.88;;
62832;SDS011;48891;49.220;6.920;2023-08-07T10:55:12;14.13;;;10.80;;
62832;SDS011;48891;49.220;6.920;2023-08-07T10:57:39;15.10;;;11.20;;
62832;SDS011;48891;49.220;6.920;2023-08-07T11:00:06;15.60;;;11.38;;
62832;SDS011;48891;49.220;6.920;2023-08-07T11:02:31;14.32;;;11.88;;
62832;SDS011;48891;49.220;6.920;2023-08-07T11:04:57;15.20;;;11.60;;
62832;SDS011;48891;49.220;6.920;2023-08-07T11:07:23;14.40;;;11.82;;
62832;SDS011;48891;49.220;6.920;2023-08-07T11:09:49;15.73;;;12.68;;
62832;SDS011;48891;49.220;6.920;2023-08-07T11:12:15;14.85;;;11.70;;
62832;SDS011;48891;49.220;6.920;2023-08-07T11:14:40;15.73;;;11.90;;
62832;SDS011;48891;49.220;6.920;2023-08-07T11:17:06;15.25;;;12.55;;
62832;SDS011;48891;49.220;6.920;2023-08-07T11:19:31;14.90;;;12.52;;
62832;SDS011;48891;49.220;6.920;2023-08-07T11:21:57;15.52;;;11.93;;
62832;SDS011;48891;49.220;6.920;2023-08-07T11:24:22;16.88;;;12.48;;
62832;SDS011;48891;49.220;6.920;2023-08-07T11:26:47;16.02;;;13.00;;
62832;SDS011;48891;49.220;6.920;2023-08-07T11:29:19;15.18;;;11.98;;
62832;SDS011;48891;49.220;6.920;2023-08-07T11:31:44;16.25;;;12.57;;
62832;SDS011;48891;49.220;6.920;2023-08-07T11:34:10;15.50;;;12.25;;
62832;SDS011;48891;49.220;6.920;2023-08-07T11:36:40;16.75;;;13.35;;
62832;SDS011;48891;49.220;6.920;2023-08-07T11:39:06;15.18;;;12.40;;
62832;SDS011;48891;49.220;6.920;2023-08-07T11:41:31;15.13;;;11.88;;
62832;SDS011;48891;49.220;6.920;2023-08-07T11:43:57;15.30;;;12.23;;
62832;SDS011;48891;49.220;6.920;2023-08-07T11:46:22;14.77;;;12.05;;
62832;SDS011;48891;49.220;6.920;2023-08-07T11:48:48;15.18;;;12.82;;
62832;SDS011;48891;49.220;6.920;2023-08-07T11:51:13;16.70;;;12.80;;
62832;SDS011;48891;49.220;6.920;2023-08-07T11:53:39;14.98;;;12.10;;
62832;SDS011;48891;49.220;6.920;2023-08-07T11:56:11;16.63;;;13.27;;
62832;SDS011;48891;49.220;6.920;2023-08-07T11:58:41;15.45;;;12.77;;
62832;SDS011;48891;49.220;6.920;2023-08-07T12:01:17;15.75;;;12.95;;
62832;SDS011;48891;49.220;6.920;2023-08-07T12:06:33;16.65;;;12.15;;
62832;SDS011;48891;49.220;6.920;2023-08-07T12:08:58;14.82;;;12.40;;
62832;SDS011;48891;49.220;6.920;2023-08-07T12:11:24;15.77;;;12.90;;
62832;SDS011;48891;49.220;6.920;2023-08-07T12:13:49;15.45;;;12.20;;
62832;SDS011;48891;49.220;6.920;2023-08-07T12:16:15;15.50;;;12.48;;
62832;SDS011;48891;49.220;6.920;2023-08-07T12:18:45;17.20;;;13.45;;
62832;SDS011;48891;49.220;6.920;2023-08-07T12:21:13;14.45;;;11.93;;
62832;SDS011;48891;49.220;6.920;2023-08-07T12:23:48;14.43;;;12.30;;
62832;SDS011;48891;49.220;6.920;2023-08-07T12:26:13;15.60;;;13.43;;
62832;SDS011;48891;49.220;6.920;2023-08-07T12:28:39;14.93;;;12.77;;
62832;SDS011;48891;49.220;6.920;2023-08-07T12:31:04;15.63;;;12.40;;
62832;SDS011;48891;49.220;6.920;2023-08-07T12:33:30;14.15;;;12.02;;
62832;SDS011;48891;49.220;6.920;2023-08-07T12:35:56;16.63;;;12.93;;
62832;SDS011;48891;49.220;6.920;2023-08-07T12:38:22;16.73;;;13.40;;
62832;SDS011;48891;49.220;6.920;2023-08-07T12:40:47;15.13;;;12.68;;
62832;SDS011;48891;49.220;6.920;2023-08-07T12:43:13;14.27;;;11.95;;
62832;SDS011;48891;49.220;6.920;2023-08-07T12:45:38;14.02;;;11.88;;
62832;SDS011;48891;49.220;6.920;2023-08-07T12:48:03;15.35;;;11.85;;
62832;SDS011;48891;49.220;6.920;2023-08-07T12:50:29;16.33;;;12.85;;
62832;SDS011;48891;49.220;6.920;2023-08-07T12:52:54;16.10;;;12.48;;
62832;SDS011;48891;49.220;6.920;2023-08-07T12:55:20;14.07;;;12.43;;
62832;SDS011;48891;49.220;6.920;2023-08-07T12:57:45;14.52;;;12.48;;
62832;SDS011;48891;49.220;6.920;2023-08-07T13:00:11;14.77;;;12.27;;
62832;SDS011;48891;49.220;6.920;2023-08-07T13:02:47;14.65;;;12.00;;
62832;SDS011;48891;49.220;6.920;2023-08-07T13:05:13;15.48;;;11.73;;
62832;SDS011;48891;49.220;6.920;2023-08-07T13:07:40;13.90;;;11.77;;
62832;SDS011;48891;49.220;6.920;2023-08-07T13:10:06;15.32;;;12.20;;
62832;SDS011;48891;49.220;6.920;2023-08-07T13:12:36;14.70;;;11.98;;
62832;SDS011;48891;49.220;6.920;2023-08-07T13:15:03;14.52;;;12.07;;
62832;SDS011;48891;49.220;6.920;2023-08-07T13:17:29;14.63;;;12.18;;
62832;SDS011;48891;49.220;6.920;2023-08-07T13:19:54;15.23;;;12.83;;
62832;SDS011;48891;49.220;6.920;2023-08-07T13:22:19;15.30;;;12.15;;
62832;SDS011;48891;49.220;6.920;2023-08-07T13:24:45;14.33;;;11.43;;
62832;SDS011;48891;49.220;6.920;2023-08-07T13:27:10;14.17;;;11.80;;
62832;SDS011;48891;49.220;6.920;2023-08-07T13:29:35;14.23;;;12.25;;
62832;SDS011;48891;49.220;6.920;2023-08-07T13:32:01;16.03;;;11.37;;
62832;SDS011;48891;49.220;6.920;2023-08-07T13:34:27;14.50;;;11.85;;
62832;SDS011;48891;49.220;6.920;2023-08-07T13:36:52;14.97;;;12.00;;
62832;SDS011;48891;49.220;6.920;2023-08-07T13:39:17;14.70;;;11.73;;
62832;SDS011;48891;49.220;6.920;2023-08-07T13:41:42;15.00;;;12.17;;
62832;SDS011;48891;49.220;6.920;2023-08-07T13:44:08;13.13;;;11.32;;
62832;SDS011;48891;49.220;6.920;2023-08-07T13:46:33;15.77;;;11.90;;
62832;SDS011;48891;49.220;6.920;2023-08-07T13:48:58;14.17;;;11.63;;
62832;SDS011;48891;49.220;6.920;2023-08-07T13:51:23;15.03;;;12.10;;
62832;SDS011;48891;49.220;6.920;2023-08-07T13:53:48;14.10;;;11.70;;
62832;SDS011;48891;49.220;6.920;2023-08-07T13:56:14;15.30;;;12.02;;
62832;SDS011;48891;49.220;6.920;2023-08-07T13:58:39;15.40;;;12.10;;
62832;SDS011;48891;49.220;6.920;2023-08-07T14:01:04;14.73;;;11.33;;
62832;SDS011;48891;49.220;6.920;2023-08-07T14:03:30;12.52;;;11.20;;
62832;SDS011;48891;49.220;6.920;2023-08-07T14:05:55;13.25;;;11.23;;
62832;SDS011;48891;49.220;6.920;2023-08-07T14:08:21;13.40;;;10.65;;
62832;SDS011;48891;49.220;6.920;2023-08-07T14:10:46;13.35;;;11.20;;
62832;SDS011;48891;49.220;6.920;2023-08-07T14:13:12;17.77;;;11.32;;
62832;SDS011;48891;49.220;6.920;2023-08-07T14:15:37;14.13;;;11.52;;
62832;SDS011;48891;49.220;6.920;2023-08-07T14:18:02;15.32;;;11.75;;
62832;SDS011;48891;49.220;6.920;2023-08-07T14:20:27;14.00;;;11.43;;
62832;SDS011;48891;49.220;6.920;2023-08-07T14:22:53;14.07;;;11.23;;